Acomita, New Mexico
Current Conditions -  °F | °C
As of 10:37 PM on Sunday 19 Oct 2014 (Local Time) from KGNT Reporting Station
Clear Clear  
Wind Chill: 32°   Ceiling: Unl
Heat Index: 37°   Visibility: 10mi
Dew Point: 34°   Wind: 7mph
Humidity: 87%   Direction: 300°WNW
Pressure: 30.23"   Gusts: NA
Location:  35.0806°N, 107.597°W
Report Text: KGNT 200437Z AUTO 30006KT 10SM CLR 03/01 A3023 RMK AO2
Loading
Personal Weather Stations






























Interactive Weather Map New forecast layout! Learn more

10-Day Weather Forecast

Advertisements
Track Severe Weather on mobile